createdAt,value
2022-10-26T00:01:16.106Z,8.43
2022-10-26T00:03:46.934Z,7.40
2022-10-26T00:06:21.606Z,7.27
2022-10-26T00:08:49.438Z,8.00
2022-10-26T00:11:17.913Z,8.67
2022-10-26T00:13:46.617Z,9.03
2022-10-26T00:16:17.073Z,10.20
2022-10-26T00:18:44.991Z,7.40
2022-10-26T00:21:12.465Z,5.70
2022-10-26T00:23:39.794Z,8.50
2022-10-26T00:26:08.055Z,7.83
2022-10-26T00:28:35.218Z,7.80
2022-10-26T00:31:12.022Z,6.20
2022-10-26T00:33:39.152Z,6.67
2022-10-26T00:36:09.278Z,6.87
2022-10-26T00:38:37.343Z,18.03
2022-10-26T00:41:05.268Z,10.93
2022-10-26T00:43:32.041Z,11.07
2022-10-26T00:46:01.739Z,6.90
2022-10-26T00:48:35.684Z,6.67
2022-10-26T00:51:32.792Z,6.70
2022-10-26T00:54:11.312Z,7.03
2022-10-26T00:56:38.411Z,7.13
2022-10-26T00:59:11.263Z,7.47
2022-10-26T01:01:43.277Z,8.17
2022-10-26T01:04:12.221Z,7.23
2022-10-26T01:06:41.182Z,7.27
2022-10-26T01:09:09.130Z,7.67
2022-10-26T01:11:36.114Z,7.63
2022-10-26T01:14:09.437Z,7.57
2022-10-26T01:16:57.107Z,7.10
2022-10-26T01:19:23.921Z,6.20
2022-10-26T01:22:25.969Z,7.40
2022-10-26T01:25:27.524Z,7.70
2022-10-26T01:27:54.734Z,8.00
2022-10-26T01:30:45.893Z,5.70
2022-10-26T01:33:31.180Z,5.97
2022-10-26T01:36:06.852Z,7.10
2022-10-26T01:39:00.404Z,6.10
2022-10-26T01:41:35.348Z,6.43
2022-10-26T01:44:25.589Z,6.27
2022-10-26T01:46:55.737Z,5.67
2022-10-26T01:49:35.448Z,6.37
2022-10-26T01:52:02.425Z,5.50
2022-10-26T01:54:29.508Z,5.80
2022-10-26T01:57:02.625Z,6.53
2022-10-26T02:00:07.750Z,5.83
2022-10-26T02:03:12.297Z,5.47
2022-10-26T02:06:19.190Z,6.67
2022-10-26T02:09:13.772Z,6.27
2022-10-26T02:11:46.957Z,5.80
2022-10-26T02:14:34.827Z,6.00
2022-10-26T02:17:19.213Z,6.30
2022-10-26T02:20:05.493Z,7.03
2022-10-26T02:22:39.684Z,5.97
2022-10-26T02:25:15.957Z,7.10
2022-10-26T02:27:50.985Z,6.87
2022-10-26T02:30:18.721Z,5.63
2022-10-26T02:32:55.125Z,7.30
2022-10-26T02:35:30.039Z,5.87
2022-10-26T02:38:04.757Z,4.17
2022-10-26T02:40:34.351Z,5.63
2022-10-26T02:43:10.760Z,5.70
2022-10-26T02:45:47.938Z,5.63
2022-10-26T02:48:16.264Z,4.90
2022-10-26T02:51:14.215Z,4.67
2022-10-26T02:54:08.638Z,6.20
2022-10-26T02:56:54.270Z,9.10
2022-10-26T02:59:23.951Z,8.27
2022-10-26T03:01:53.146Z,5.80
2022-10-26T03:04:20.369Z,5.63
2022-10-26T03:06:54.992Z,7.57
2022-10-26T03:09:24.765Z,8.57
2022-10-26T03:11:53.177Z,5.20
2022-10-26T03:14:20.690Z,7.03
2022-10-26T03:16:47.718Z,6.17
2022-10-26T03:19:14.778Z,6.00
2022-10-26T03:21:42.303Z,6.93
2022-10-26T03:24:10.237Z,4.90
2022-10-26T03:26:37.348Z,6.03
2022-10-26T03:29:04.836Z,5.43
2022-10-26T03:31:31.787Z,5.23
2022-10-26T03:33:58.814Z,6.17
2022-10-26T03:36:25.784Z,6.83
2022-10-26T03:38:52.736Z,6.00
2022-10-26T03:41:19.688Z,6.00
2022-10-26T03:43:48.474Z,5.07
2022-10-26T03:46:15.429Z,5.00
2022-10-26T03:48:42.413Z,6.27
2022-10-26T03:51:09.346Z,5.10
2022-10-26T03:53:36.298Z,5.00
2022-10-26T03:56:03.498Z,5.20
2022-10-26T03:58:30.581Z,3.60
2022-10-26T04:00:57.655Z,4.03
2022-10-26T04:03:24.652Z,5.07
2022-10-26T04:05:51.641Z,5.70
2022-10-26T04:08:18.894Z,6.33
2022-10-26T04:10:47.399Z,4.83
2022-10-26T04:13:14.376Z,4.73
2022-10-26T04:15:41.339Z,5.20
2022-10-26T04:18:12.950Z,4.10
2022-10-26T04:20:42.154Z,4.47
2022-10-26T04:23:14.488Z,4.30
2022-10-26T04:25:42.781Z,5.87
2022-10-26T04:28:12.462Z,5.80
2022-10-26T04:30:39.989Z,5.23
2022-10-26T04:33:07.805Z,4.70
2022-10-26T04:35:35.079Z,5.57
2022-10-26T04:38:06.632Z,5.13
2022-10-26T04:40:35.555Z,4.33
2022-10-26T04:43:02.816Z,4.70
2022-10-26T04:45:30.829Z,5.23
2022-10-26T04:48:07.091Z,5.47
2022-10-26T04:50:34.421Z,5.07
2022-10-26T04:53:01.779Z,4.73
2022-10-26T04:55:28.833Z,5.13
2022-10-26T04:57:58.434Z,5.13
2022-10-26T05:00:30.101Z,4.60
2022-10-26T05:03:02.303Z,4.93
2022-10-26T05:05:31.290Z,4.80
2022-10-26T05:07:58.245Z,5.27
2022-10-26T05:10:26.809Z,6.17
2022-10-26T05:12:55.718Z,7.03
2022-10-26T05:15:23.479Z,5.90
2022-10-26T05:18:03.366Z,5.73
2022-10-26T05:20:34.347Z,6.20
2022-10-26T05:23:06.034Z,5.57
2022-10-26T05:25:37.631Z,5.97
2022-10-26T05:28:14.816Z,5.83
2022-10-26T05:30:44.509Z,5.80
2022-10-26T05:33:13.374Z,4.77
2022-10-26T05:35:40.736Z,6.60
2022-10-26T05:38:18.290Z,5.80
2022-10-26T05:40:50.305Z,7.10
2022-10-26T05:43:18.103Z,6.10
2022-10-26T05:45:45.521Z,6.07
2022-10-26T05:48:12.699Z,5.67
2022-10-26T05:50:39.799Z,4.33
2022-10-26T05:53:06.769Z,5.10
2022-10-26T05:55:34.931Z,4.50
2022-10-26T05:58:02.521Z,4.57
2022-10-26T06:00:30.683Z,4.00
2022-10-26T06:03:35.241Z,4.57
2022-10-26T06:06:05.216Z,5.70
2022-10-26T06:08:34.816Z,4.47
2022-10-26T06:11:03.051Z,5.63
2022-10-26T06:13:30.507Z,4.83
2022-10-26T06:16:07.880Z,5.33
2022-10-26T06:19:02.025Z,6.20
2022-10-26T06:21:41.177Z,4.90
2022-10-26T06:24:53.785Z,5.20
2022-10-26T06:28:05.038Z,5.33
2022-10-26T06:30:32.902Z,5.23
2022-10-26T06:33:06.635Z,6.40
2022-10-26T06:36:15.898Z,4.97
2022-10-26T06:38:44.917Z,5.70
2022-10-26T06:41:18.907Z,5.47
2022-10-26T06:43:47.626Z,5.20
2022-10-26T06:46:49.708Z,5.37
2022-10-26T06:50:09.889Z,5.63
2022-10-26T06:52:54.203Z,6.43
2022-10-26T06:55:22.043Z,5.77
2022-10-26T06:57:50.219Z,5.70
2022-10-26T07:00:23.136Z,4.93
2022-10-26T07:02:50.762Z,5.53
2022-10-26T07:05:18.507Z,4.53
2022-10-26T07:07:48.196Z,6.63
2022-10-26T07:10:16.089Z,4.67
2022-10-26T07:12:43.067Z,4.77
2022-10-26T07:15:10.607Z,4.43
2022-10-26T07:17:49.685Z,5.10
2022-10-26T07:20:20.859Z,6.87
2022-10-26T07:22:57.728Z,5.03
2022-10-26T07:25:26.383Z,5.07
2022-10-26T07:27:59.390Z,5.37
2022-10-26T07:30:28.699Z,5.87
2022-10-26T07:33:06.459Z,5.87
2022-10-26T07:35:34.626Z,4.57
2022-10-26T07:38:02.143Z,6.43
2022-10-26T07:40:30.095Z,6.33
2022-10-26T07:43:00.165Z,8.13
2022-10-26T07:45:29.501Z,8.47
2022-10-26T07:47:56.615Z,9.40
2022-10-26T07:50:24.146Z,7.60
2022-10-26T07:52:51.439Z,7.30
2022-10-26T07:55:19.233Z,7.80
2022-10-26T07:57:48.530Z,9.30
2022-10-26T08:00:19.780Z,9.53
2022-10-26T08:02:46.793Z,9.40
2022-10-26T08:05:14.301Z,11.00
2022-10-26T08:07:44.502Z,10.27
2022-10-26T08:10:13.904Z,7.77
2022-10-26T08:12:43.096Z,11.23
2022-10-26T08:15:10.985Z,10.70
2022-10-26T08:17:38.157Z,10.77
2022-10-26T08:20:05.988Z,10.87
2022-10-26T08:22:32.977Z,10.90
2022-10-26T08:24:59.904Z,10.43
2022-10-26T08:27:27.444Z,9.30
2022-10-26T08:29:54.549Z,9.63
2022-10-26T08:32:21.740Z,9.17
2022-10-26T08:34:48.688Z,8.87
2022-10-26T08:37:15.655Z,8.70
2022-10-26T08:39:42.563Z,8.90
2022-10-26T08:42:27.362Z,8.37
2022-10-26T08:45:03.187Z,9.03
2022-10-26T08:47:46.939Z,10.00
2022-10-26T08:50:28.280Z,9.77
2022-10-26T08:53:25.828Z,9.10
2022-10-26T08:56:25.559Z,8.57
2022-10-26T08:59:17.895Z,8.90
2022-10-26T09:01:45.002Z,9.37
2022-10-26T09:04:16.272Z,8.57
2022-10-26T09:07:13.228Z,9.37
2022-10-26T09:10:37.834Z,7.80
2022-10-26T09:13:37.816Z,7.83
2022-10-26T09:16:55.904Z,8.23
2022-10-26T09:19:56.892Z,7.40
2022-10-26T09:23:24.723Z,8.30
2022-10-26T09:26:01.201Z,7.77
2022-10-26T09:28:38.967Z,7.53
2022-10-26T09:31:06.279Z,7.87
2022-10-26T09:33:39.618Z,7.27
2022-10-26T09:36:28.479Z,7.50
2022-10-26T09:39:15.429Z,6.53
2022-10-26T09:42:02.611Z,6.73
2022-10-26T09:44:44.890Z,7.00
2022-10-26T09:47:35.562Z,7.37
2022-10-26T09:50:37.329Z,9.10
2022-10-26T09:53:04.818Z,5.90
2022-10-26T09:55:33.106Z,6.97
2022-10-26T09:58:06.914Z,6.80
2022-10-26T10:03:02.542Z,7.00
2022-10-26T10:05:53.202Z,6.07
2022-10-26T10:08:27.619Z,5.60
2022-10-26T10:11:15.434Z,5.33
2022-10-26T10:25:40.167Z,4.13
2022-10-26T10:28:28.372Z,3.83
2022-10-26T10:31:05.903Z,4.20
2022-10-26T10:33:41.745Z,4.07
2022-10-26T10:36:25.889Z,3.53
2022-10-26T10:38:54.321Z,3.23
2022-10-26T10:41:48.240Z,2.80
2022-10-26T10:44:29.617Z,2.87
2022-10-26T10:47:06.966Z,2.83
2022-10-26T10:49:34.602Z,3.83
2022-10-26T10:52:01.789Z,2.03
2022-10-26T10:54:39.169Z,2.50
2022-10-26T10:57:58.518Z,2.50
2022-10-26T11:00:27.654Z,2.10
2022-10-26T11:03:45.874Z,2.03
2022-10-26T11:06:29.874Z,2.50
2022-10-26T11:09:15.587Z,2.03
2022-10-26T11:12:01.796Z,1.50
2022-10-26T11:14:49.563Z,2.20
2022-10-26T11:17:29.200Z,2.20
2022-10-26T11:20:14.949Z,1.90
2022-10-26T11:23:38.287Z,2.03
2022-10-26T11:26:34.151Z,2.00
2022-10-26T11:29:43.492Z,2.10
2022-10-26T11:32:43.619Z,1.90
2022-10-26T11:35:47.423Z,1.40
2022-10-26T11:38:46.614Z,1.70
2022-10-26T11:42:00.278Z,1.50
2022-10-26T11:45:04.268Z,1.70
2022-10-26T11:47:53.039Z,1.40
2022-10-26T11:50:36.333Z,2.38
2022-10-26T11:53:24.400Z,1.75
2022-10-26T11:55:56.316Z,1.50
2022-10-26T11:58:28.295Z,1.60
2022-10-26T12:01:11.615Z,0.90
2022-10-26T12:03:49.440Z,1.47
2022-10-26T12:06:25.134Z,1.08
2022-10-26T12:09:15.969Z,1.08
2022-10-26T12:12:46.247Z,1.38
2022-10-26T12:16:03.969Z,1.40
2022-10-26T12:18:59.216Z,1.45
2022-10-26T12:21:30.731Z,1.23
2022-10-26T12:24:35.460Z,1.23
2022-10-26T12:27:06.047Z,1.40
2022-10-26T12:29:49.103Z,1.10
2022-10-26T12:32:33.693Z,1.00
2022-10-26T12:35:44.159Z,1.30
2022-10-26T12:38:32.944Z,1.33
2022-10-26T12:41:06.681Z,1.50
2022-10-26T12:43:40.917Z,1.20
2022-10-26T12:51:21.797Z,1.30
2022-10-26T12:54:07.583Z,1.15
2022-10-26T12:56:49.935Z,1.35
2022-10-26T12:59:28.685Z,1.20
2022-10-26T13:02:26.212Z,1.48
2022-10-26T13:05:45.205Z,1.33
2022-10-26T13:08:13.961Z,1.15
2022-10-26T13:11:18.584Z,1.00
2022-10-26T13:13:57.512Z,1.20
2022-10-26T13:16:28.821Z,1.30
2022-10-26T13:18:57.926Z,1.75
2022-10-26T13:21:26.899Z,0.98
2022-10-26T13:23:53.732Z,1.38
2022-10-26T13:26:25.630Z,0.90
2022-10-26T13:28:57.373Z,1.38
2022-10-26T13:31:34.262Z,1.45
2022-10-26T13:34:19.256Z,0.93
2022-10-26T13:37:26.425Z,1.10
2022-10-26T13:39:56.180Z,1.20
2022-10-26T13:42:51.224Z,1.55
2022-10-26T13:45:47.196Z,1.33
2022-10-26T13:48:30.798Z,1.67
2022-10-26T13:51:04.000Z,1.23
2022-10-26T13:54:02.626Z,1.58
2022-10-26T13:56:41.180Z,1.08
2022-10-26T13:59:14.711Z,1.30
2022-10-26T14:01:41.807Z,1.20
2022-10-26T14:04:26.585Z,1.33
2022-10-26T14:06:54.614Z,1.50
2022-10-26T14:09:23.189Z,1.58
2022-10-26T14:12:02.649Z,1.33
2022-10-26T14:14:38.682Z,1.42
2022-10-26T14:17:05.949Z,1.55
2022-10-26T14:19:40.783Z,1.75
2022-10-26T14:22:08.122Z,1.75
2022-10-26T14:24:47.344Z,1.30
2022-10-26T14:27:17.994Z,1.08
2022-10-26T14:29:49.859Z,1.30
2022-10-26T14:32:33.496Z,1.40
2022-10-26T14:35:00.535Z,1.40
2022-10-26T14:37:59.757Z,2.17
2022-10-26T14:40:32.346Z,1.30
2022-10-26T14:43:02.566Z,2.22
2022-10-26T14:45:54.357Z,1.35
2022-10-26T14:48:33.269Z,1.50
2022-10-26T14:51:21.356Z,1.40
2022-10-26T14:53:53.489Z,1.48
2022-10-26T14:56:35.542Z,1.55
2022-10-26T14:59:33.360Z,2.13
2022-10-26T15:02:22.331Z,2.05
2022-10-26T15:05:24.353Z,2.33
2022-10-26T15:07:54.634Z,2.05
2022-10-26T15:10:37.069Z,1.77
2022-10-26T15:13:32.488Z,1.52
2022-10-26T15:16:18.855Z,1.73
2022-10-26T15:18:51.482Z,1.60
2022-10-26T15:21:25.781Z,2.13
2022-10-26T15:23:54.663Z,1.83
2022-10-26T15:26:24.439Z,1.52
2022-10-26T15:28:53.439Z,1.80
2022-10-26T15:31:20.166Z,1.30
2022-10-26T15:33:53.259Z,1.27
2022-10-26T15:36:24.577Z,1.10
2022-10-26T15:38:51.978Z,1.30
2022-10-26T15:41:29.348Z,1.47
2022-10-26T15:44:01.383Z,1.30
2022-10-26T15:46:39.250Z,1.60
2022-10-26T15:49:14.699Z,1.40
2022-10-26T15:51:45.288Z,1.27
2022-10-26T15:54:12.481Z,1.40
2022-10-26T15:56:40.224Z,1.73
2022-10-26T15:59:18.622Z,1.90
2022-10-26T16:01:45.920Z,2.07
2022-10-26T16:04:13.133Z,2.37
2022-10-26T16:06:41.985Z,2.70
2022-10-26T16:09:17.944Z,2.30
2022-10-26T16:11:45.364Z,1.83
2022-10-26T16:14:13.083Z,1.33
2022-10-26T16:16:41.245Z,1.30
2022-10-26T16:19:29.813Z,1.30
2022-10-26T16:21:58.315Z,1.67
2022-10-26T16:24:30.250Z,1.83
2022-10-26T16:26:57.867Z,2.50
2022-10-26T16:29:24.837Z,2.90
2022-10-26T16:31:51.916Z,1.70
2022-10-26T16:34:18.948Z,2.00
2022-10-26T16:36:45.860Z,2.27
2022-10-26T16:39:13.389Z,6.07
2022-10-26T16:41:40.418Z,2.10
2022-10-26T16:44:07.386Z,2.30
2022-10-26T16:46:34.446Z,2.10
2022-10-26T16:49:01.486Z,3.70
2022-10-26T16:51:29.028Z,3.33
2022-10-26T16:53:57.224Z,4.40
2022-10-26T16:56:28.901Z,2.13
2022-10-26T16:58:57.083Z,3.20
2022-10-26T17:01:24.538Z,2.20
2022-10-26T17:03:53.325Z,1.80
2022-10-26T17:06:20.691Z,2.37
2022-10-26T17:08:48.032Z,2.27
2022-10-26T17:11:19.754Z,2.30
2022-10-26T17:13:47.488Z,2.00
2022-10-26T17:16:19.993Z,2.77
2022-10-26T17:18:48.346Z,2.77
2022-10-26T17:21:19.138Z,1.90
2022-10-26T17:23:46.765Z,2.63
2022-10-26T17:26:15.033Z,3.03
2022-10-26T17:28:42.060Z,2.60
2022-10-26T17:31:15.126Z,2.30
2022-10-26T17:33:44.460Z,2.13
2022-10-26T17:36:13.969Z,2.77
2022-10-26T17:38:42.733Z,3.10
2022-10-26T17:41:13.687Z,3.30
2022-10-26T17:43:43.159Z,3.47
2022-10-26T17:46:16.830Z,3.50
2022-10-26T17:48:44.094Z,2.67
2022-10-26T17:51:18.946Z,2.40
2022-10-26T17:53:51.173Z,2.20
2022-10-26T17:56:26.473Z,2.57
2022-10-26T17:59:03.988Z,2.30
2022-10-26T18:01:31.867Z,1.97
2022-10-26T18:03:59.329Z,2.83
2022-10-26T18:06:26.451Z,3.20
2022-10-26T18:08:53.507Z,2.40
2022-10-26T18:11:26.758Z,3.07
2022-10-26T18:13:55.964Z,3.10
2022-10-26T18:16:28.124Z,2.60
2022-10-26T18:19:04.692Z,2.97
2022-10-26T18:21:38.735Z,2.63
2022-10-26T18:24:08.150Z,2.87
2022-10-26T18:26:36.060Z,2.20
2022-10-26T18:29:04.639Z,3.20
2022-10-26T18:31:34.726Z,3.50
2022-10-26T18:34:05.538Z,3.63
2022-10-26T18:36:32.977Z,4.27
2022-10-26T18:39:00.039Z,4.03
2022-10-26T18:41:28.116Z,3.80
2022-10-26T18:43:58.934Z,3.70
2022-10-26T18:46:33.742Z,3.47
2022-10-26T18:49:01.144Z,3.73
2022-10-26T18:51:34.404Z,4.23
2022-10-26T18:54:02.141Z,3.83
2022-10-26T18:56:29.206Z,3.90
2022-10-26T18:58:59.406Z,4.10
2022-10-26T19:01:34.162Z,4.80
2022-10-26T19:04:05.675Z,4.80
2022-10-26T19:06:40.210Z,3.80
2022-10-26T19:09:09.984Z,4.70
2022-10-26T19:11:38.664Z,4.50
2022-10-26T19:14:07.386Z,4.83
2022-10-26T19:16:50.856Z,4.00
2022-10-26T19:19:20.149Z,4.90
2022-10-26T19:21:49.609Z,4.77
2022-10-26T19:24:22.648Z,4.57
2022-10-26T19:26:51.631Z,4.70
2022-10-26T19:29:20.013Z,4.43
2022-10-26T19:31:51.680Z,5.43
2022-10-26T19:34:19.139Z,5.33
2022-10-26T19:36:47.018Z,5.30
2022-10-26T19:39:18.305Z,5.60
2022-10-26T19:41:46.423Z,5.10
2022-10-26T19:44:14.995Z,5.33
2022-10-26T19:46:43.413Z,5.30
2022-10-26T19:49:12.467Z,4.77
2022-10-26T19:51:39.477Z,4.87
2022-10-26T19:54:07.142Z,3.60
2022-10-26T19:56:37.149Z,5.43
2022-10-26T19:59:05.056Z,4.23
2022-10-26T20:01:32.701Z,4.33
2022-10-26T20:04:02.250Z,6.17
2022-10-26T20:06:30.614Z,5.83
2022-10-26T20:08:57.608Z,6.13
2022-10-26T20:11:24.533Z,7.87
2022-10-26T20:13:51.527Z,6.70
2022-10-26T20:16:18.562Z,7.70
2022-10-26T20:18:47.784Z,7.33
2022-10-26T20:21:17.223Z,6.93
2022-10-26T20:23:45.247Z,6.87
2022-10-26T20:26:19.288Z,3.90
2022-10-26T20:28:51.175Z,4.57
2022-10-26T20:31:18.444Z,4.93
2022-10-26T20:33:45.483Z,4.30
2022-10-26T20:36:12.393Z,3.47
2022-10-26T20:38:40.319Z,3.40
2022-10-26T20:41:14.530Z,4.20
2022-10-26T20:43:42.556Z,6.17
2022-10-26T20:46:28.162Z,6.40
2022-10-26T20:48:55.623Z,6.80
2022-10-26T20:52:19.467Z,5.33
2022-10-26T20:55:37.341Z,7.13
2022-10-26T20:58:20.374Z,7.70
2022-10-26T21:00:59.698Z,8.17
2022-10-26T21:03:26.885Z,7.70
2022-10-26T21:05:55.479Z,8.60
2022-10-26T21:08:22.568Z,9.30
2022-10-26T21:10:53.236Z,9.93
2022-10-26T21:13:20.204Z,9.03
2022-10-26T21:15:47.221Z,9.50
2022-10-26T21:18:14.173Z,10.60
2022-10-26T21:20:41.088Z,9.23
2022-10-26T21:23:08.036Z,9.53
2022-10-26T21:25:37.030Z,9.47
2022-10-26T21:28:06.809Z,5.80
2022-10-26T21:30:34.038Z,6.03
2022-10-26T21:33:01.111Z,5.97
2022-10-26T21:35:28.230Z,3.90
2022-10-26T21:37:55.988Z,6.33
2022-10-26T21:40:23.314Z,4.07
2022-10-26T21:42:51.813Z,6.33
2022-10-26T21:45:19.542Z,7.97
2022-10-26T21:47:52.677Z,8.03
2022-10-26T21:50:19.908Z,3.87
2022-10-26T21:52:46.833Z,5.60
2022-10-26T21:55:13.905Z,4.80
2022-10-26T21:57:40.827Z,7.93
2022-10-26T22:00:09.613Z,7.27
2022-10-26T22:02:36.538Z,8.80
2022-10-26T22:05:03.660Z,8.57
2022-10-26T22:07:30.584Z,8.83
2022-10-26T22:10:10.242Z,8.57
2022-10-26T22:12:37.781Z,7.60
2022-10-26T22:15:05.699Z,8.73
2022-10-26T22:17:36.058Z,10.50
2022-10-26T22:20:03.178Z,10.10
2022-10-26T22:22:30.132Z,8.37
2022-10-26T22:24:57.108Z,6.17
2022-10-26T22:27:24.081Z,4.63
2022-10-26T22:29:51.045Z,5.30
2022-10-26T22:32:17.964Z,5.50
2022-10-26T22:34:44.904Z,4.97
2022-10-26T22:37:11.898Z,8.37
2022-10-26T22:39:38.908Z,8.83
2022-10-26T22:42:05.946Z,9.03
2022-10-26T22:44:32.850Z,6.47
2022-10-26T22:46:59.866Z,4.53
2022-10-26T22:49:26.792Z,5.10
2022-10-26T22:51:53.690Z,6.67
2022-10-26T22:54:20.615Z,9.00
2022-10-26T22:56:47.557Z,9.23
2022-10-26T22:59:14.459Z,9.20
2022-10-26T23:01:41.842Z,9.10
2022-10-26T23:04:14.435Z,6.67
2022-10-26T23:06:41.699Z,8.17
2022-10-26T23:09:08.709Z,6.10
2022-10-26T23:11:35.668Z,6.40
2022-10-26T23:14:03.801Z,6.87
2022-10-26T23:16:31.606Z,7.83
2022-10-26T23:18:59.518Z,7.83
2022-10-26T23:21:28.209Z,5.73
2022-10-26T23:23:56.326Z,5.80
2022-10-26T23:26:23.496Z,6.30
2022-10-26T23:28:50.962Z,8.27
2022-10-26T23:31:28.145Z,8.17
2022-10-26T23:33:57.438Z,8.27
2022-10-26T23:36:25.216Z,7.77
2022-10-26T23:38:52.270Z,8.27
2022-10-26T23:41:19.178Z,8.30
2022-10-26T23:43:46.183Z,11.50
2022-10-26T23:46:13.281Z,8.47
2022-10-26T23:48:40.344Z,11.17
2022-10-26T23:51:07.284Z,7.03
2022-10-26T23:53:34.821Z,4.80
2022-10-26T23:56:02.399Z,6.40
2022-10-26T23:58:29.361Z,4.90
